Weather at Carolina Kidney Heliport

Public forecast

Using degrees Fahrenheit for public forecast. Weather courtesy of forecast.io.

Closest aviation weather report (METAR) to Carolina Kidney Heliport

Closest report is Goldsboro-Wayne Municipal Airport, 3.6 nm (6.7 km) NNW. Retrieved 2020/09/28 11:35 UTC (45 minutes ago):

KGWW 281135Z AUTO 00000KT M1/4SM FG BKN001 17/17 A2996 RMK AO2 T01650165

Closest aviation forecast (TAF) to Carolina Kidney Heliport

Closest forecast is Seymour Johnson Air Force Base, 3.8 nm (7.0 km) S. Retrieved 2020/09/28 12:23 UTC (0 seconds ago):

TAF KGSB 281214Z 2812/2918 00000KT 0800 FG SKC QNH2992INS BECMG 2813/2814 23003KT 4800 BR BKN075 QNH2995INS BECMG 2814/2815 21005KT 9999 NSW BKN050 QNH2995INS BECMG 2817/2818 18006KT 9999 BKN040 QNH2985INS TX27/2820Z TN18/2812Z